createdAt,value
2023-04-18T00:05:08.488Z,12.40
2023-04-18T00:10:11.824Z,11.30
2023-04-18T00:15:17.945Z,11.80
2023-04-18T00:21:19.923Z,8.00
2023-04-18T00:26:46.941Z,12.40
2023-04-18T00:32:00.563Z,11.00
2023-04-18T00:37:06.479Z,13.40
2023-04-18T00:42:24.845Z,12.40
2023-04-18T00:47:35.902Z,15.20
2023-04-18T00:52:56.224Z,17.20
2023-04-18T00:58:12.542Z,15.30
2023-04-18T01:03:14.963Z,15.00
2023-04-18T01:08:28.498Z,16.40
2023-04-18T01:13:38.081Z,11.50
2023-04-18T01:19:35.660Z,16.50
2023-04-18T01:24:44.702Z,17.20
2023-04-18T01:30:05.011Z,14.20
2023-04-18T01:35:17.839Z,16.20
2023-04-18T01:41:31.435Z,16.60
2023-04-18T01:48:09.275Z,18.40
2023-04-18T01:54:51.689Z,8.60
2023-04-18T02:00:55.393Z,12.20
2023-04-18T02:06:09.455Z,13.50
2023-04-18T02:11:43.388Z,12.60
2023-04-18T02:16:48.813Z,12.00
2023-04-18T02:22:01.541Z,13.90
2023-04-18T02:27:29.327Z,16.90
2023-04-18T02:32:58.707Z,17.00
2023-04-18T02:38:24.089Z,20.50
2023-04-18T02:43:42.192Z,17.20
2023-04-18T02:49:03.004Z,17.50
2023-04-18T02:54:18.970Z,19.00
2023-04-18T03:00:04.508Z,18.60
2023-04-18T03:05:46.905Z,14.60
2023-04-18T03:10:56.278Z,21.50
2023-04-18T03:16:00.214Z,17.50
2023-04-18T03:21:14.332Z,13.40
2023-04-18T03:27:13.816Z,12.30
2023-04-18T03:32:42.120Z,12.00
2023-04-18T03:38:07.041Z,10.60
2023-04-18T03:43:57.890Z,14.60
2023-04-18T03:49:04.911Z,20.70
2023-04-18T03:55:14.175Z,23.00
2023-04-18T04:02:12.260Z,19.50
2023-04-18T04:07:59.641Z,19.00
2023-04-18T04:13:14.191Z,20.70
2023-04-18T04:19:18.519Z,18.00
2023-04-18T04:25:28.964Z,17.10
2023-04-18T04:37:26.380Z,20.80
2023-04-18T04:43:36.630Z,19.90
2023-04-18T04:49:23.044Z,26.90
2023-04-18T04:54:53.833Z,25.30
2023-04-18T05:00:28.138Z,29.00
2023-04-18T05:06:15.104Z,27.00
2023-04-18T05:17:11.224Z,31.20
2023-04-18T05:22:28.268Z,27.80
2023-04-18T05:28:29.979Z,27.30
2023-04-18T05:34:16.393Z,26.20
2023-04-18T05:39:43.693Z,27.70
2023-04-18T05:45:30.454Z,24.70
2023-04-18T05:50:32.700Z,24.30
2023-04-18T05:55:54.650Z,26.20
2023-04-18T06:01:01.616Z,24.70
2023-04-18T06:06:13.077Z,24.90
2023-04-18T06:11:37.764Z,24.10
2023-04-18T06:16:43.457Z,24.70
2023-04-18T06:21:46.540Z,22.80
2023-04-18T06:27:17.476Z,25.30
2023-04-18T06:32:26.788Z,29.00
2023-04-18T06:37:41.877Z,29.90
2023-04-18T06:43:25.051Z,24.50
2023-04-18T06:49:20.738Z,25.70
2023-04-18T06:54:28.073Z,25.70
2023-04-18T06:59:32.253Z,25.00
2023-04-18T07:04:52.916Z,25.90
2023-04-18T07:09:57.698Z,25.30
2023-04-18T07:14:59.373Z,27.40
2023-04-18T07:20:06.556Z,18.90
2023-04-18T07:25:11.923Z,20.40
2023-04-18T07:30:19.673Z,19.10
2023-04-18T07:35:21.849Z,20.50
2023-04-18T07:40:31.703Z,19.20
2023-04-18T07:46:10.186Z,18.70
2023-04-18T07:51:12.242Z,23.40
2023-04-18T07:56:18.727Z,20.60
2023-04-18T08:01:31.945Z,20.50
2023-04-18T08:06:46.987Z,22.00
2023-04-18T08:11:59.668Z,19.30
2023-04-18T08:17:09.781Z,26.10
2023-04-18T08:22:50.002Z,17.40
2023-04-18T08:28:04.382Z,16.70
2023-04-18T08:33:38.283Z,16.80
2023-04-18T08:38:59.203Z,19.40
2023-04-18T08:44:01.259Z,18.50
2023-04-18T08:49:22.187Z,20.00
2023-04-18T08:54:29.890Z,27.40
2023-04-18T08:59:35.103Z,19.80
2023-04-18T09:04:44.265Z,17.10
2023-04-18T09:09:50.956Z,14.70
2023-04-18T09:15:22.442Z,16.80
2023-04-18T09:20:41.746Z,20.10
2023-04-18T09:25:52.771Z,13.30
2023-04-18T09:31:15.026Z,15.60
2023-04-18T09:36:31.768Z,16.20
2023-04-18T09:41:33.811Z,15.20
2023-04-18T09:46:38.302Z,14.80
2023-04-18T09:51:46.499Z,13.40
2023-04-18T09:57:04.839Z,16.10
2023-04-18T10:02:21.541Z,17.30
2023-04-18T10:07:27.610Z,18.90
2023-04-18T10:12:35.968Z,11.90
2023-04-18T10:18:04.390Z,16.30
2023-04-18T10:23:28.047Z,14.00
2023-04-18T10:29:05.217Z,9.90
2023-04-18T10:34:07.513Z,14.80
2023-04-18T10:39:25.563Z,15.00
2023-04-18T10:44:29.775Z,12.20
2023-04-18T10:49:34.679Z,10.90
2023-04-18T10:55:11.570Z,12.20
2023-04-18T11:00:16.291Z,12.20
2023-04-18T11:05:27.358Z,12.00
2023-04-18T11:10:29.500Z,11.90
2023-04-18T11:15:36.233Z,12.10
2023-04-18T11:20:49.125Z,13.20
2023-04-18T11:26:02.540Z,11.90
2023-04-18T11:31:14.410Z,8.60
2023-04-18T11:36:43.502Z,11.10
2023-04-18T11:42:29.647Z,11.50
2023-04-18T11:48:25.217Z,10.40
2023-04-18T11:53:38.446Z,11.90
2023-04-18T11:58:45.592Z,12.30
2023-04-18T12:04:13.955Z,9.10
2023-04-18T12:09:27.683Z,7.80
2023-04-18T12:14:35.193Z,10.20
2023-04-18T12:19:44.982Z,11.60
2023-04-18T12:25:06.851Z,11.00
2023-04-18T12:30:09.852Z,9.90
2023-04-18T12:35:21.476Z,10.50
2023-04-18T12:40:45.630Z,9.50
2023-04-18T12:46:07.721Z,10.10
2023-04-18T12:51:09.868Z,8.90
2023-04-18T12:56:21.304Z,7.50
2023-04-18T13:01:31.689Z,9.10
2023-04-18T13:06:33.876Z,14.70
2023-04-18T13:11:38.953Z,12.00
2023-04-18T13:16:45.699Z,11.00
2023-04-18T13:21:49.482Z,13.30
2023-04-18T13:26:59.258Z,10.50
2023-04-18T13:32:01.081Z,7.10
2023-04-18T13:37:05.934Z,10.20
2023-04-18T13:42:09.884Z,8.80
2023-04-18T13:47:11.691Z,7.40
2023-04-18T13:52:18.171Z,9.90
2023-04-18T13:57:22.785Z,8.60
2023-04-18T14:02:27.246Z,10.40
2023-04-18T14:07:29.076Z,10.40
2023-04-18T14:12:30.832Z,13.00
2023-04-18T14:17:37.991Z,11.10
2023-04-18T14:22:53.233Z,9.20
2023-04-18T14:28:09.986Z,13.30
2023-04-18T14:33:15.196Z,10.20
2023-04-18T14:38:17.194Z,12.20
2023-04-18T14:43:35.871Z,11.40
2023-04-18T14:48:37.705Z,10.90
2023-04-18T14:53:40.380Z,9.80
2023-04-18T14:58:49.996Z,10.60
2023-04-18T15:03:51.867Z,9.90
2023-04-18T15:09:16.780Z,12.40
2023-04-18T15:14:58.213Z,12.50
2023-04-18T15:21:01.904Z,10.50
2023-04-18T15:27:23.215Z,11.20
2023-04-18T15:32:51.657Z,13.90
2023-04-18T15:38:02.337Z,9.50
2023-04-18T15:44:04.300Z,13.10
2023-04-18T15:50:33.675Z,15.10
2023-04-18T15:56:00.947Z,12.80
2023-04-18T16:01:04.993Z,10.30
2023-04-18T16:06:09.219Z,13.40
2023-04-18T16:11:16.473Z,13.20
2023-04-18T16:17:20.795Z,11.80
2023-04-18T16:23:44.755Z,17.60
2023-04-18T16:29:15.386Z,15.20
2023-04-18T16:34:17.240Z,14.70
2023-04-18T16:39:27.590Z,17.40
2023-04-18T16:44:41.376Z,19.80
2023-04-18T16:49:50.825Z,20.50
2023-04-18T16:55:04.552Z,20.40
2023-04-18T17:00:14.797Z,18.10
2023-04-18T17:05:33.385Z,19.80
2023-04-18T17:11:07.932Z,21.40
2023-04-18T17:16:26.973Z,23.70
2023-04-18T17:21:34.574Z,24.60
2023-04-18T17:26:38.324Z,21.40
2023-04-18T17:31:42.418Z,20.60
2023-04-18T17:36:44.366Z,22.80
2023-04-18T17:41:54.312Z,21.90
2023-04-18T17:46:56.143Z,21.30
2023-04-18T17:51:58.422Z,24.40
2023-04-18T17:57:03.398Z,28.00
2023-04-18T18:02:25.009Z,25.10
2023-04-18T18:07:33.314Z,28.00
2023-04-18T18:12:40.502Z,25.40
2023-04-18T18:17:42.818Z,22.00
2023-04-18T18:22:44.469Z,22.70
2023-04-18T18:27:53.978Z,23.40
2023-04-18T18:33:22.787Z,22.70
2023-04-18T18:38:24.637Z,20.40
2023-04-18T18:43:26.569Z,18.50
2023-04-18T18:48:30.985Z,19.30
2023-04-18T18:54:34.526Z,22.00
2023-04-18T18:59:56.309Z,22.70
2023-04-18T19:05:01.286Z,18.10
2023-04-18T19:10:04.753Z,20.00
2023-04-18T19:15:10.195Z,22.70
2023-04-18T19:20:12.011Z,20.90
2023-04-18T19:25:14.146Z,22.50
2023-04-18T19:31:15.646Z,26.20
2023-04-18T19:36:37.511Z,26.50
2023-04-18T19:41:41.100Z,27.10
2023-04-18T19:47:42.513Z,26.50
2023-04-18T19:53:07.422Z,25.70
2023-04-18T19:58:43.291Z,31.40
2023-04-18T20:03:50.394Z,28.00
2023-04-18T20:09:54.267Z,26.70
2023-04-18T20:16:15.474Z,30.30
2023-04-18T20:22:36.823Z,31.10
2023-04-18T20:28:15.794Z,26.70
2023-04-18T20:33:39.291Z,28.20
2023-04-18T20:39:40.598Z,35.40
2023-04-18T20:46:02.638Z,27.50
2023-04-18T20:52:23.872Z,27.80
2023-04-18T20:57:48.161Z,27.80
2023-04-18T21:03:49.894Z,31.50
2023-04-18T21:09:20.040Z,28.50
2023-04-18T21:14:40.117Z,28.40
2023-04-18T21:20:47.657Z,26.90
2023-04-18T21:27:11.379Z,34.80
2023-04-18T21:33:02.369Z,33.40
2023-04-18T21:38:17.198Z,33.20
2023-04-18T21:43:21.720Z,32.70
2023-04-18T21:49:26.155Z,31.20
2023-04-18T21:54:59.230Z,31.30
2023-04-18T22:00:27.718Z,28.80
2023-04-18T22:07:30.752Z,28.50
2023-04-18T22:14:29.867Z,26.30
2023-04-18T22:21:14.871Z,32.20
2023-04-18T22:27:06.910Z,31.00
2023-04-18T22:32:26.301Z,30.50
2023-04-18T22:37:47.183Z,28.80
2023-04-18T22:43:06.477Z,32.90
2023-04-18T22:48:13.310Z,31.70
2023-04-18T22:53:31.928Z,41.80
2023-04-18T22:59:04.941Z,31.80
2023-04-18T23:05:26.617Z,32.00
2023-04-18T23:11:00.182Z,34.40
2023-04-18T23:16:32.349Z,33.00
2023-04-18T23:22:25.911Z,34.10
2023-04-18T23:28:41.606Z,34.70
2023-04-18T23:35:03.388Z,36.70
2023-04-18T23:41:31.036Z,35.60
2023-04-18T23:47:53.487Z,34.90
2023-04-18T23:53:24.259Z,33.60
2023-04-18T23:59:29.111Z,32.40
